createdAt,value
2022-12-04T00:03:56.967Z,91763.97
2022-12-04T00:08:58.868Z,91718.06
2022-12-04T00:14:06.414Z,91750.03
2022-12-04T00:19:09.258Z,91719.13
2022-12-04T00:24:11.179Z,91752.28
2022-12-04T00:29:13.132Z,91746.63
2022-12-04T00:34:15.043Z,91742.31
2022-12-04T00:39:17.074Z,91700.56
2022-12-04T00:44:18.984Z,91723.88
2022-12-04T00:49:20.871Z,91736.63
2022-12-04T00:54:22.827Z,91697.72
2022-12-04T00:59:24.735Z,91714.19
2022-12-04T01:04:26.712Z,91715.94
2022-12-04T01:09:28.649Z,91730.63
2022-12-04T01:14:30.647Z,91732.81
2022-12-04T01:19:32.568Z,91718.03
2022-12-04T01:24:34.464Z,91730.28
2022-12-04T01:29:36.387Z,91692.09
2022-12-04T01:34:38.292Z,91732.13
2022-12-04T01:39:40.307Z,91688.84
2022-12-04T01:44:45.150Z,91718.38
2022-12-04T01:49:48.857Z,91691.91
2022-12-04T01:54:56.510Z,91719.16
2022-12-04T02:00:02.099Z,91712.19
2022-12-04T02:05:10.176Z,91705.13
2022-12-04T02:10:13.990Z,91683.91
2022-12-04T02:15:29.314Z,91704.75
2022-12-04T02:20:41.226Z,91641.84
2022-12-04T02:26:10.929Z,91715.06
2022-12-04T02:31:19.487Z,91681.63
2022-12-04T02:36:24.187Z,91653.84
2022-12-04T02:41:35.100Z,91705.19
2022-12-04T02:46:41.026Z,91718.38
2022-12-04T02:51:46.096Z,91699.53
2022-12-04T02:56:51.811Z,91727.75
2022-12-04T03:01:58.985Z,91733.94
2022-12-04T03:07:07.568Z,91741.03
2022-12-04T03:12:18.240Z,91711.13
2022-12-04T03:17:27.264Z,91723.50
2022-12-04T03:22:31.647Z,91739.22
2022-12-04T03:27:54.606Z,91753.19
2022-12-04T03:33:17.336Z,91752.22
2022-12-04T03:38:41.701Z,91757.75
2022-12-04T03:44:00.266Z,91749.25
2022-12-04T03:49:21.490Z,91753.59
2022-12-04T03:54:38.361Z,91719.75
2022-12-04T04:00:06.419Z,91720.44
2022-12-04T04:05:11.770Z,91737.19
2022-12-04T04:10:24.222Z,91722.91
2022-12-04T04:15:45.002Z,91754.53
2022-12-04T04:21:17.213Z,91749.97
2022-12-04T04:26:19.197Z,91732.47
2022-12-04T04:31:43.211Z,91753.53
2022-12-04T04:37:10.917Z,91743.38
2022-12-04T04:42:30.170Z,91757.34
2022-12-04T04:47:38.784Z,91758.03
2022-12-04T04:52:46.269Z,91714.78
2022-12-04T04:57:48.250Z,91760.56
2022-12-04T05:02:50.446Z,91767.94
2022-12-04T05:07:52.529Z,91769.22
2022-12-04T05:12:54.456Z,91675.34
2022-12-04T05:17:56.366Z,91773.97
2022-12-04T05:22:59.128Z,91775.59
2022-12-04T05:28:01.075Z,91779.75
2022-12-04T05:33:03.155Z,91784.78
2022-12-04T05:38:05.054Z,91774.78
2022-12-04T05:43:06.948Z,91756.03
2022-12-04T05:48:08.954Z,91785.59
2022-12-04T05:53:10.916Z,91762.19
2022-12-04T05:58:12.787Z,91761.06
2022-12-04T06:03:14.779Z,91768.28
2022-12-04T06:08:16.936Z,91768.97
2022-12-04T06:13:18.911Z,91768.09
2022-12-04T06:18:20.991Z,91767.84
2022-12-04T06:23:22.976Z,91763.59
2022-12-04T06:28:24.882Z,91756.53
2022-12-04T06:33:27.094Z,91762.78
2022-12-04T06:38:29.672Z,91748.09
2022-12-04T06:43:31.959Z,91766.03
2022-12-04T06:48:34.484Z,91769.44
2022-12-04T06:53:36.967Z,91769.63
2022-12-04T06:58:38.937Z,91764.56
2022-12-04T07:03:43.611Z,91744.34
2022-12-04T07:08:52.539Z,91793.56
2022-12-04T07:13:54.773Z,91754.59
2022-12-04T07:18:57.389Z,91791.75
2022-12-04T07:24:01.508Z,91811.22
2022-12-04T07:29:03.463Z,91799.34
2022-12-04T07:34:05.610Z,91775.78
2022-12-04T07:39:07.800Z,91809.50
2022-12-04T07:44:09.867Z,91773.13
2022-12-04T07:49:12.914Z,91808.56
2022-12-04T07:54:14.865Z,91731.47
2022-12-04T07:59:16.867Z,91813.09
2022-12-04T08:04:18.877Z,91814.16
2022-12-04T08:09:20.872Z,91813.25
2022-12-04T08:14:22.919Z,91781.13
2022-12-04T08:19:25.502Z,91806.03
2022-12-04T08:24:27.488Z,91809.59
2022-12-04T08:29:29.405Z,91809.41
2022-12-04T08:34:32.018Z,91804.34
2022-12-04T08:39:33.998Z,91812.56
2022-12-04T08:44:35.909Z,91733.00
2022-12-04T08:49:38.031Z,91795.63
2022-12-04T08:54:40.013Z,91814.47
2022-12-04T08:59:42.376Z,91816.00
2022-12-04T09:04:44.404Z,91789.13
2022-12-04T09:09:55.175Z,91789.88
2022-12-04T09:14:57.186Z,91795.28
2022-12-04T09:20:01.164Z,91773.31
2022-12-04T09:25:05.183Z,91818.25
2022-12-04T09:30:09.004Z,91810.81
2022-12-04T09:35:11.018Z,91723.53
2022-12-04T09:40:32.068Z,91761.59
2022-12-04T09:45:54.985Z,91807.84
2022-12-04T09:50:57.791Z,91762.88
2022-12-04T09:56:05.830Z,91791.78
2022-12-04T10:01:21.088Z,91783.81
2022-12-04T10:06:32.508Z,91777.25
2022-12-04T10:11:53.454Z,91776.53
2022-12-04T10:17:19.097Z,91783.78
2022-12-04T10:22:33.511Z,91706.91
2022-12-04T10:28:09.608Z,91770.66
2022-12-04T10:33:32.347Z,91772.03
2022-12-04T10:38:43.781Z,91794.53
2022-12-04T10:43:48.546Z,91790.66
2022-12-04T10:49:09.659Z,91786.63
2022-12-04T10:54:25.384Z,91749.56
2022-12-04T10:59:28.235Z,91788.00
2022-12-04T11:04:31.908Z,91809.50
2022-12-04T11:09:34.610Z,91818.13
2022-12-04T11:14:36.711Z,91812.22
2022-12-04T11:19:38.660Z,91796.25
2022-12-04T11:24:42.888Z,91801.03
2022-12-04T11:29:46.637Z,91798.19
2022-12-04T11:34:51.929Z,91740.13
2022-12-04T11:39:55.658Z,91771.09
2022-12-04T11:45:17.987Z,91792.25
2022-12-04T11:50:54.013Z,91792.25
2022-12-04T11:56:25.084Z,91793.69
2022-12-04T12:02:20.851Z,91784.31
2022-12-04T12:07:59.088Z,91762.63
2022-12-04T12:13:09.031Z,91760.91
2022-12-04T12:18:19.252Z,91745.88
2022-12-04T12:23:31.467Z,91739.50
2022-12-04T12:29:00.667Z,91739.72
2022-12-04T12:34:08.654Z,91726.94
2022-12-04T12:39:26.712Z,91702.19
2022-12-04T12:45:03.664Z,91726.66
2022-12-04T12:50:22.844Z,91717.59
2022-12-04T12:55:39.030Z,91716.38
2022-12-04T13:00:50.022Z,91702.69
2022-12-04T13:05:57.739Z,91627.59
2022-12-04T13:11:12.584Z,91688.94
2022-12-04T13:16:36.462Z,91678.78
2022-12-04T13:21:57.220Z,91715.47
2022-12-04T13:27:11.282Z,91721.91
2022-12-04T13:32:43.428Z,91723.00
2022-12-04T13:37:57.581Z,91736.09
2022-12-04T13:43:27.749Z,91715.97
2022-12-04T13:48:33.782Z,91746.94
2022-12-04T13:53:38.003Z,91747.31
2022-12-04T13:58:40.167Z,91738.25
2022-12-04T14:03:55.561Z,91726.16
2022-12-04T14:09:01.392Z,91727.19
2022-12-04T14:14:07.930Z,91677.84
2022-12-04T14:19:27.852Z,91713.41
2022-12-04T14:24:30.531Z,91709.84
2022-12-04T14:29:46.327Z,91716.41
2022-12-04T14:34:50.426Z,91716.81
2022-12-04T14:39:53.110Z,91733.53
2022-12-04T14:45:17.458Z,91731.03
2022-12-04T14:50:42.420Z,91735.38
2022-12-04T14:56:09.179Z,91737.78
2022-12-04T15:01:29.691Z,91750.59
2022-12-04T15:06:34.025Z,91744.81
2022-12-04T15:12:04.992Z,91734.34
2022-12-04T15:17:09.367Z,91790.56
2022-12-04T15:22:28.362Z,91787.56
2022-12-04T15:27:32.920Z,91794.16
2022-12-04T15:32:35.274Z,91794.91
2022-12-04T15:37:37.992Z,91756.09
2022-12-04T15:42:40.078Z,91767.25
2022-12-04T15:47:42.134Z,91793.94
2022-12-04T15:52:56.439Z,91792.81
2022-12-04T15:58:22.636Z,91779.03
2022-12-04T16:03:44.786Z,91789.13
2022-12-04T16:08:56.278Z,91760.56
2022-12-04T16:14:16.567Z,91758.78
2022-12-04T16:19:34.367Z,91790.56
2022-12-04T16:24:36.735Z,91804.25
2022-12-04T16:29:39.077Z,91802.59
2022-12-04T16:34:41.184Z,91811.38
2022-12-04T16:39:44.004Z,91834.31
2022-12-04T16:44:46.152Z,91857.88
2022-12-04T16:49:50.166Z,91860.75
2022-12-04T16:54:52.184Z,91874.25
2022-12-04T16:59:54.366Z,91876.88
2022-12-04T17:04:58.063Z,91852.19
2022-12-04T17:10:00.539Z,91887.28
2022-12-04T17:15:02.507Z,91828.06
2022-12-04T17:20:07.504Z,91879.03
2022-12-04T17:25:10.574Z,91851.50
2022-12-04T17:30:13.256Z,91846.47
2022-12-04T17:35:15.809Z,91891.69
2022-12-04T17:40:19.313Z,91916.16
2022-12-04T17:45:21.290Z,91912.09
2022-12-04T17:50:23.265Z,91906.34
2022-12-04T17:55:25.262Z,91801.59
2022-12-04T18:00:27.320Z,91896.38
2022-12-04T18:05:29.469Z,91884.25
2022-12-04T18:10:31.511Z,91882.34
2022-12-04T18:15:34.802Z,91902.63
2022-12-04T18:20:37.274Z,91931.78
2022-12-04T18:25:39.240Z,91939.66
2022-12-04T18:30:42.429Z,91958.34
2022-12-04T18:35:48.774Z,91944.06
2022-12-04T18:40:56.036Z,91952.63
2022-12-04T18:46:07.720Z,91968.31
2022-12-04T18:51:21.533Z,91974.78
2022-12-04T18:56:23.627Z,91959.25
2022-12-04T19:01:27.262Z,91980.69
2022-12-04T19:06:41.166Z,91994.78
2022-12-04T19:11:44.001Z,91975.81
2022-12-04T19:16:46.586Z,92004.16
2022-12-04T19:21:48.713Z,91970.56
2022-12-04T19:26:53.973Z,92013.44
2022-12-04T19:31:59.237Z,92004.31
2022-12-04T19:37:01.896Z,92036.75
2022-12-04T19:42:03.876Z,92017.31
2022-12-04T19:47:05.755Z,92025.22
2022-12-04T19:52:07.734Z,92019.25
2022-12-04T19:57:10.030Z,92026.09
2022-12-04T20:02:12.299Z,92009.75
2022-12-04T20:07:14.663Z,92049.94
2022-12-04T20:12:16.627Z,92018.03
2022-12-04T20:17:18.634Z,92075.28
2022-12-04T20:22:20.817Z,92092.38
2022-12-04T20:27:22.844Z,92046.00
2022-12-04T20:32:24.762Z,92105.25
2022-12-04T20:37:27.133Z,92111.63
2022-12-04T20:42:33.476Z,92060.59
2022-12-04T20:47:36.402Z,92114.72
2022-12-04T20:52:38.709Z,92149.28
2022-12-04T20:57:40.662Z,92158.78
2022-12-04T21:02:43.633Z,92189.28
2022-12-04T21:07:45.616Z,92135.09
2022-12-04T21:13:06.087Z,92112.31
2022-12-04T21:18:08.154Z,92176.94
2022-12-04T21:23:10.098Z,92207.69
2022-12-04T21:28:12.039Z,92178.16
2022-12-04T21:33:13.961Z,92185.34
2022-12-04T21:38:15.883Z,92207.59
2022-12-04T21:43:17.787Z,92213.06
2022-12-04T21:48:19.692Z,92200.38
2022-12-04T21:53:21.868Z,92204.53
2022-12-04T21:58:26.085Z,92205.34
2022-12-04T22:03:28.136Z,92175.28
2022-12-04T22:08:30.113Z,92178.38
2022-12-04T22:13:32.774Z,92192.13
2022-12-04T22:18:35.098Z,92214.94
2022-12-04T22:23:37.776Z,92217.63
2022-12-04T22:28:40.418Z,92221.56
2022-12-04T22:33:43.233Z,92228.63
2022-12-04T22:39:08.780Z,92223.72
2022-12-04T22:44:07.907Z,92232.31
2022-12-04T22:49:09.844Z,92235.69
2022-12-04T22:54:14.169Z,92218.34
2022-12-04T22:59:16.078Z,92255.13
2022-12-04T23:04:18.201Z,92225.72
2022-12-04T23:09:20.405Z,92252.38
2022-12-04T23:14:23.499Z,92232.63
2022-12-04T23:19:25.574Z,92256.91
2022-12-04T23:24:27.513Z,92249.78
2022-12-04T23:29:52.185Z,92201.41
2022-12-04T23:34:53.087Z,92211.91
2022-12-04T23:39:55.222Z,92234.75
2022-12-04T23:44:57.231Z,92223.31
2022-12-04T23:49:59.459Z,92227.84
2022-12-04T23:55:01.628Z,92219.44
